Terminal Aerodrome Forecast
Issued by NWS

Home | Current Version | Previous Version | Text Only | Print | Product List | Glossary On
Versions: 1 2 3 4 5 6 7 8 9 10 11 12
462
FTUS45 KVEF 102320
TAFHND
TAF
KHND 102320Z 1100/1124 VRB05KT P6SM BKN250
     FM110200 17007KT P6SM BKN250
     FM111700 VRB04KT P6SM SCT250=

USA.gov is the U.S. government's official web portal to all federal, state and local government web resources and services.